Observations for GUERNSEY AIRPORT, United Kingdom (EGJB)

EGJB 201950Z 18009KT 9999 BKN035 09/08 Q1022
EGJB 201920Z 17009KT 9999 SCT033 09/08 Q1022
EGJB 201850Z 16009KT 9999 FEW033 09/08 Q1022
EGJB 201820Z 16010KT 9999 FEW040 09/08 Q1021
EGJB 201750Z 16009KT 9999 FEW040 09/07 Q1021
EGJB 201720Z 16008KT 9999 FEW040 09/07 Q1021
EGJB 201650Z 17009KT 9999 FEW040 09/08 Q1021
EGJB 201620Z 16009KT 9999 FEW040 10/08 Q1021
EGJB 201550Z 18011KT 9999 FEW038 10/08 Q1021
EGJB 201520Z 17010KT 9999 FEW038 10/08 Q1021
EGJB 201450Z 18011KT 9999 FEW038 11/08 Q1021
EGJB 201420Z 17011KT 9999 FEW008 10/08 Q1021
EGJB 201350Z 17011KT 9999 FEW038 11/08 Q1021
EGJB 201320Z 19011KT 9999 FEW008 10/08 Q1021
EGJB 201250Z 20010KT 9999 FEW007 10/07 Q1021
EGJB 201220Z 18010KT 9999 FEW007 10/07 Q1022
EGJB 201150Z 17011KT 9999 FEW008 09/07 Q1022
EGJB 201120Z 18010KT 9999 FEW007 SCT028 09/07 Q1021 
EGJB 201050Z 19010KT 9999 FEW007 10/06 Q1021
EGJB 201020Z 19011KT 9999 FEW007 09/06 Q1021
EGJB 200950Z 19011KT 9999 FEW005 08/06 Q1021
EGJB 200920Z 19010KT 9999 FEW005 09/07 Q1021
EGJB 200850Z 19011KT 9999 FEW003 08/06 Q1020
EGJB 200820Z 18010KT 9999 FEW003 08/06 Q1020
EGJB 200750Z 18009KT 9999 FEW003 07/06 Q1020
EGJB 200720Z 19011KT 9999 FEW001 07/06 Q1019
EGJB 200650Z 19011KT 9999 FEW001 07/06 Q1019
EGJB 200620Z 19011KT 9999 FEW040 07/05 Q1019
EGJB 200550Z 19011KT 9999 FEW040 07/05 Q1019
EGJB 200520Z 19010KT 9999 FEW040 07/05 Q1019
EGJB 200450Z 19010KT 9999 FEW040 07/05 Q1019
EGJB 200420Z 20012KT 9999 FEW040 07/04 Q1019
EGJB 200350Z 19012KT 9999 FEW040 07/04 Q1019
EGJB 200250Z 20013KT 9999 FEW041 07/05 Q1019
EGJB 200150Z 19013KT 9999 BKN041 08/05 Q1020
EGJB 200050Z 20013KT 9999 SCT045 08/05 Q1020
EGJB 192350Z 20012KT 9999 SCT044 08/05 Q1020
EGJB 192250Z 19010KT 9999 BKN046 08/06 Q1020
EGJB 192150Z 21011KT 9999 FEW035 08/06 Q1020
EGJB 192050Z 18009KT 9999 BKN033 09/07 Q1020
EGJB 192020Z 17008KT 9999 SCT033 BKN043 08/07 Q1020 
EGJB 191950Z 17009KT 9999 FEW036 BKN048 08/06 Q1020 
EGJB 191920Z 17008KT 9999 FEW036 SCT048 08/07 Q1020